Airfield :
LOGIN :

Register | Disclaimer

   EN    FR    IT 

 










Legend :    VFR   Marginal VFR   IFR   Intensive IFR   Very Intensive IFR
Visi :
Ceiling :
>= 8 km
>= 3000ft
5 to 8 km
1000 to 3000 ft
1500m to 5 km
500 to 1000 ft
800 to 1500m
200 to 500 ft
< 800m
< 200 ft
Symbols :   Thunderstorms  Fog  Heavy snow  Heavy precipitations  Wind > 20 kt
SIGMETs :     Misc.  Thunderstorms  Icing  Turbulence  Mountain Waves  Volcanic Ashes







- Airport Elevation : 616 ft
- IATA code : PUF
- Download approach charts


LFBP - Pau

CURRENT METAR :
  • 211200Z AUTO 25006KT 210V310 9000 BKN016 23/19 Q1020 NOSIG

EXPIRED METARs :
  • 211130Z AUTO 26004KT 210V340 7000 OVC014 23/18 Q1020 BECMG SCT020
  • 211100Z AUTO 27005KT 230V300 9000 OVC014 22/18 Q1021 BECMG SCT020
  • 211030Z AUTO 26004KT 180V320 5000 BR BKN011 21/18 Q1021 BECMG SCT020
  • 211000Z AUTO 30003KT 230V340 6000 OVC010 20/18 Q1021 BECMG SCT020
  • 210930Z AUTO 27004KT 220V300 5000 BR OVC009 20/17 Q1021 BECMG SCT020

TAF TAF LFBP
Valid from the 21 at 12:00 until the 22 at 12:00 UTC


211100Z 2112/2212 30008KT 6000 BKN015
BECMG 2112/2114 SCT020
TEMPO 2114/2118 SCT025TCU
BECMG 2119/2121 OVC010
BECMG 2121/2124 3000 BR OVC005
BECMG 2206/2209 6000 NSW
BECMG 2209/2211 SCT030
No reported NOTAMs for that airfield.



MET'MAP, your aeronautical weather chart ! - Copyright ORBIFLY December 2007 - Disclaimer

ORBIFLY MET'MAP TEAM :

Programming & Development : Alexandra Zaïnal
Concept & Development : Baudouin d'Aumeries
Co-Development & Prog : Marc-Olivier Méhu
Technical & hardware support : Manuel Goepfert

Contact : metmap@orbifly.com




SOURCES & CREDITS :

   NOAA